Hlavní strana
METAR-TAF:

METAR-TAF

Letiště :

Natal, Rio Grande do Norte, Brazílie

zeměpisná šířka: 05-55S, zeměpisná délka: 035-15W, výška: 52 m

Aktuální stav počasí

Zpráva byla vytvořena před 45 minutami, v 06:00 UTC
Jihojihovýchodní vítr 9 kt
Teplota 27°C
Vlhkost vzduchu 74%
Tlak 1011 hPa
Viditelnost 10 km a více
Skoro jasno ve výšce 1800 ft
Polojasno ve výšce 5000 ft

METAR: SBNT 130600Z 15009KT 9999 FEW018 SCT050 27/22 Q1011

Čas: 03:45 (06:45 UTC)

Předpověď počasí

Zpráva byla vytvořena před 4 hodinami a 45 minutami, v 02:00 UTC
Předpověď platná od 13 v 06 UTC do 14 v 06 UTC
Jihovýchodní vítr 6 kt
Viditelnost: 8000 m
Polojasno ve výšce 2200 ft
Změna
od 13 v 10 UTC do 13 v 12 UTC
Východojihovýchodní vítr 16 kt
Změna
od 13 v 21 UTC do 13 v 23 UTC
Jihovýchodní vítr 9 kt

TAF: SBNT 130200Z 1306/1406 14006KT 8000 SCT022 TN25/1308Z TX30/1314Z BECMG 1310/1312 12016KT BECMG 1321/1323 13009KT RMK PEA

Stav a předpovědi počasí z více než 4 000 letišť (zprávy METAR a TAF).

Červené a žluté tečky na mapě představují dostupné meteorologické stanice.

Když kurzor umístíte na tečku, zobrazí se název stanice.

Pak kliknutím zobrazíte stav a předpověď počasí.

Chcete-li změnit mapu, kliknutím na zelené tlačítko se znaménkem +mapu přiblížíte, kliknutím na zelené tlačítko se znaménkem – mapu oddálíte a kliknutím na zelené šipky přejdete na sousední mapy.


METAR-TAF: